ENOV/HOV METAR and TAF weather

Enter ICAO airport designator
Station Type Date Time Source
ENOV METAR 2019/04/18 18:50 UTC NOAA

ENOV 181850Z VRB02KT CAVOK 15/M04 Q1036 RMK WIND 2175FT 16014KT


Station Type Date Time Source
ENOV Decoded METAR 2019/04/18 18:50 UTC NOAA

Orsta-Volda / Hovden, Norway (ENOV) 62-11N 006-04E 74M
Apr 18, 2019 - 02:50 PM EDT / 2019.04.18 1850 UTC
Wind: Variable at 2 MPH (2 KT):0
Visibility: greater than 7 mile(s):0
Temperature: 59 F (15 C)
Dew Point: 24 F (-4 C)
Relative Humidity: 26%
Pressure (altimeter): 30.59 in. Hg (1036 hPa)
ob: ENOV 181850Z VRB02KT CAVOK 15/M04 Q1036 RMK WIND 2175FT 16014KT
cycle: 19

Station Type Date Time Source
ENOV TAF UTC NOAA

Error!

Example: see airport list